Data for 09/16/2008

Time Sea-Level Adjusted Pressure Absolute Pressure Temperature Relative Humidity Dew Point   
(mb) (inHg) (mb) (inHg) (C) (F) (%) (C) (F)
00:05 1024 30.24 853 25.19 13.4 56.2 37 -1 30.2
00:10 1024 30.24 853 25.19 13.4 56.1 37 -0.8 30.5
00:15 1024 30.24 853 25.19 13.2 55.7 39 -0.4 31.3
00:20 1024 30.24 853 25.19 12.9 55.2 40 -0.4 31.4
00:25 1024 30.24 853 25.19 12.8 55 40 -0.5 31
00:30 1024 30.24 853 25.19 12.8 55 39 -0.7 30.8
00:35 1024 30.24 853 25.19 12.6 54.7 38 -1.3 29.7
00:40 1024 30.24 853 25.19 13 55.3 36 -1.7 28.9
00:45 1024 30.24 853 25.19 13.2 55.7 36 -1.6 29.1
00:50 1024 30.24 853 25.19 13.1 55.6 35 -1.8 28.8
00:55 1024 30.24 853 25.19 13.3 55.9 34 -2.4 27.8
01:00 1024 30.24 853 25.19 13.9 57.1 32 -2.3 27.8
01:05 1024 30.24 853 25.19 13.9 57 33 -2 28.5
01:10 1024 30.24 853 25.19 13.8 56.9 33 -2.2 28.1
01:15 1024 30.24 853 25.19 13.4 56.2 35 -1.7 29
01:20 1024 30.24 853 25.19 13 55.3 36 -1.6 29.1
01:25 1024 30.24 853 25.19 12.7 54.8 37 -1.7 29
01:30 1024 30.24 853 25.19 12.7 54.8 37 -1.7 28.9
01:35 1024 30.24 853 25.19 12.6 54.6 36 -1.9 28.6
01:40 1024 30.24 853 25.19 12.6 54.6 36 -1.9 28.5
01:45 1024 30.24 853 25.19 12.6 54.7 37 -1.8 28.8
01:50 1024 30.24 853 25.19 12.6 54.7 36 -2 28.5
01:55 1024 30.24 853 25.19 12.8 55 36 -2 28.5
02:00 1024 30.24 853 25.19 12.6 54.7 36 -2 28.4
02:05 1024 30.24 853 25.19 12.6 54.7 35 -2.3 27.8
02:10 1024 30.24 853 25.19 12.9 55.3 33 -2.7 27.1
02:15 1024 30.24 853 25.19 13.4 56.1 36 -1.4 29.5
02:20 1024 30.24 853 25.19 13 55.4 36 -1.5 29.3
02:25 1024 30.24 853 25.19 12.9 55.1 36 -1.9 28.5
02:30 1024 30.24 853 25.19 13.1 55.5 38 -0.9 30.4
02:35 1024 30.24 853 25.19 12.3 54.2 39 -1.2 29.8
02:40 1024 30.24 853 25.19 12.1 53.8 39 -1.4 29.6
02:45 1024 30.24 853 25.19 12.2 53.9 39 -1.3 29.6
02:50 1024 30.24 853 25.19 12 53.6 41 -0.6 30.9
02:55 1024 30.24 853 25.19 11.4 52.6 41 -1.2 29.9
03:00 1024 30.24 853 25.19 11.4 52.6 40 -1.6 29.1
03:05 1024 30.24 853 25.19 11.5 52.6 42 -1 30.1
03:10 1024 30.24 853 25.19 12.1 53.7 36 -2.5 27.5
03:15 1024 30.24 853 25.19 12.6 54.7 37 -1.5 29.3
03:20 1024 30.24 853 25.19 12.2 53.9 37 -1.9 28.6
03:25 1024 30.24 853 25.19 12.7 54.8 33 -2.9 26.7
03:30 1024 30.24 853 25.19 13.1 55.6 34 -2.2 28
03:35 1024 30.24 853 25.19 13.1 55.5 33 -2.6 27.3
03:40 1024 30.24 853 25.19 13.2 55.8 34 -2.4 27.7
03:45 1024 30.24 853 25.19 13 55.3 35 -2.2 28
03:50 1024 30.24 853 25.19 12.8 55 35 -2.3 27.8
03:55 1024 30.24 853 25.19 12.7 54.9 36 -1.9 28.6
04:00 1024 30.24 853 25.19 12.4 54.3 38 -1.6 29.1
04:05 1024 30.24 853 25.19 12 53.6 39 -1.4 29.5
04:10 1024 30.24 853 25.19 11.6 52.9 41 -1.3 29.7
04:15 1024 30.24 853 25.19 11.4 52.5 40 -1.7 29
04:20 1024 30.24 853 25.19 11.6 52.9 38 -2.3 27.8
04:25 1024 30.24 853 25.19 12.3 54.1 37 -2 28.3
04:30 1024 30.24 853 25.19 12.4 54.4 37 -2 28.4
04:35 1024 30.24 853 25.19 12.5 54.4 35 -2.5 27.6
04:40 1024 30.24 853 25.19 12.7 54.9 35 -2.3 27.8
04:45 1024 30.24 853 25.19 12.9 55.2 34 -2.7 27.2
04:50 1024 30.24 853 25.19 13.2 55.8 33 -2.5 27.4
04:55 1024 30.24 853 25.19 12.9 55.3 35 -2.1 28.2
05:00 1024 30.24 853 25.19 12.6 54.7 35 -2.4 27.7
05:05 1024 30.24 853 25.19 12.6 54.6 36 -2.1 28.3
05:10 1024 30.24 853 25.19 12.3 54.1 36 -2.3 27.9
05:15 1024 30.24 853 25.19 12.4 54.3 37 -1.9 28.7
05:20 1024 30.24 853 25.19 12.2 54 38 -1.7 28.9
05:25 1024 30.24 853 25.19 12.1 53.7 37 -2 28.4
05:30 1024 30.24 853 25.19 12.1 53.8 37 -2.1 28.2
05:35 1024 30.24 853 25.19 12 53.6 39 -1.6 29.2
05:40 1024 30.24 853 25.19 11.9 53.3 38 -1.9 28.5
05:45 1024 30.24 853 25.19 11.9 53.5 39 -1.5 29.3
05:50 1024 30.24 853 25.19 11.9 53.5 38 -2 28.5
05:55 1024 30.24 853 25.19 12 53.5 38 -1.8 28.8
06:00 1024 30.24 853 25.19 11.9 53.4 38 -1.9 28.6
06:05 1024 30.24 853 25.19 11.8 53.3 39 -1.7 29
06:10 1024 30.24 853 25.19 11.6 53 39 -1.7 28.9
06:15 1024 30.24 853 25.19 11.8 53.2 39 -1.7 28.9
06:20 1024 30.24 853 25.19 11.7 53.1 40 -1.5 29.3
06:25 1024 30.24 853 25.19 11.6 52.8 39 -1.8 28.8
06:30 1024 30.24 853 25.19 11.8 53.2 39 -1.6 29.1
06:35 1024 30.24 853 25.19 11.6 52.8 39 -2 28.4
06:40 1024 30.24 853 25.19 11.7 53.1 39 -1.9 28.6
06:45 1024 30.24 853 25.19 11.8 53.2 39 -1.6 29.1
06:50 1024 30.24 853 25.19 11.6 52.8 39 -1.7 28.9
06:55 1024 30.24 853 25.19 11.4 52.4 40 -1.8 28.7
07:00 1024 30.24 853 25.19 11.7 53 38 -2 28.4
07:05 1024 30.24 853 25.19 11.7 53 40 -1.5 29.3
07:10 1024 30.24 853 25.19 11.4 52.6 41 -1.4 29.5
07:15 1024 30.24 853 25.19 11 51.9 43 -1.1 29.9
07:20 1024 30.24 853 25.19 10.7 51.3 43 -1.2 29.8
07:25 1024 30.24 853 25.19 10.7 51.2 44 -1.2 29.9
07:30 1024 30.24 853 25.19 10.5 50.8 44 -1.3 29.7
07:35 1024 30.24 853 25.19 10.6 51.1 43 -1.5 29.2
07:40 1024 30.24 853 25.19 10.9 51.6 42 -1.6 29.2
07:45 1024 30.24 853 25.19 11.1 52.1 40 -1.8 28.8
07:50 1024 30.24 853 25.19 11.6 52.8 40 -1.7 29
07:55 1024 30.24 854 25.22 11.9 53.4 37 -2.4 27.6
08:00 1024 30.24 854 25.22 12.5 54.4 38 -1.6 29.2
08:05 1024 30.24 854 25.22 12.5 54.5 38 -1.3 29.7
08:10 1024 30.24 854 25.22 12.6 54.7 37 -1.5 29.2
08:15 1024 30.24 854 25.22 12.7 54.8 39 -1 30.1
08:20 1024 30.24 854 25.22 12.5 54.5 40 -0.8 30.5
08:25 1024 30.24 854 25.22 12.9 55.2 38 -1 30.2
08:30 1024 30.24 854 25.22 13.1 55.6 37 -1.1 30
08:35 1024 30.24 854 25.22 13.3 55.9 38 -0.7 30.7
08:40 1024 30.24 854 25.22 13.6 56.4 37 -0.6 30.9
08:45 1024 30.24 854 25.22 14.1 57.4 37 -0.5 31.2
08:50 1024 30.24 854 25.22 14.2 57.6 36 -0.4 31.2
08:55 1024 30.24 854 25.22 14.6 58.2 36 -0.2 31.6
09:00 1024 30.24 854 25.22 15 59 37 0.4 32.8
09:05 1024 30.24 854 25.22 15.4 59.8 34 -0.3 31.5
09:10 1025 30.27 854 25.22 15.9 60.7 33 -0.1 31.9
09:15 1024 30.24 854 25.22 16.6 61.9 31 -0.4 31.2
09:20 1024 30.24 854 25.22 17.1 62.8 31 -0.2 31.6
09:25 1024 30.24 854 25.22 17.2 62.9 31 -0.1 31.8
09:30 1024 30.24 854 25.22 17.3 63.1 30 -0.5 31.1
09:35 1024 30.24 854 25.22 17.4 63.3 29 -0.6 31
09:40 1024 30.24 854 25.22 18 64.3 28 -0.5 31.1
09:45 1024 30.24 854 25.22 18.1 64.5 28 -0.6 30.9
09:50 1024 30.24 854 25.22 18.2 64.8 28 -0.4 31.4
09:55 1024 30.24 854 25.22 17.8 64.1 28 -0.6 30.9
10:00 1024 30.24 854 25.22 17.8 64 30 -0.1 31.9
10:05 1024 30.24 854 25.22 17.6 63.7 29 -0.5 31.1
10:10 1024 30.24 854 25.22 17.9 64.3 29 -0.2 31.6
10:15 1024 30.24 854 25.22 18.8 65.8 28 -0.1 31.8
10:20 1024 30.24 854 25.22 18.6 65.5 27 -0.6 30.9
10:25 1024 30.24 854 25.22 18.6 65.6 27 -0.6 30.9
10:30 1024 30.24 854 25.22 19.2 66.6 27 -0.2 31.6
10:35 1024 30.24 854 25.22 19.2 66.5 25 -1.2 29.8
10:40 1024 30.24 854 25.22 19.1 66.5 25 -1.2 29.9
10:45 1024 30.24 853 25.19 19 66.2 26 -0.6 30.9
10:50 1024 30.24 853 25.19 19.8 67.7 24 -1 30.2
10:55 1024 30.24 853 25.19 19.8 67.6 26 0.1 32.1
11:00 1024 30.24 853 25.19 19.8 67.6 26 -0.3 31.5
11:05 1024 30.24 853 25.19 19.2 66.5 26 -0.5 31
11:10 1024 30.24 853 25.19 20.5 68.8 24 -0.7 30.8
11:15 1024 30.24 853 25.19 21.4 70.5 23 -0.3 31.5
11:20 1024 30.24 853 25.19 20.9 69.7 24 -0.3 31.5
11:25 1024 30.24 853 25.19 21.8 71.2 21 -1.3 29.6
11:30 1024 30.24 853 25.19 22.2 71.9 20 -1.3 29.7
11:35 1024 30.24 853 25.19 21.8 71.2 22 -0.5 31.1
11:40 1024 30.24 853 25.19 22.1 71.8 22 -0.7 30.8
11:45 1024 30.24 853 25.19 22.7 72.8 22 0.2 32.4
11:50 1024 30.24 853 25.19 23.3 73.9 21 -0.1 31.8
11:55 1024 30.24 853 25.19 22.9 73.3 22 0.5 32.8
12:00 1024 30.24 853 25.19 23.2 73.7 21 -0 31.9
12:05 1024 30.24 853 25.19 23.7 74.7 20 -0.7 30.8
12:10 1024 30.24 853 25.19 24 75.1 19 -1.1 30
12:15 1024 30.24 853 25.19 23.5 74.3 20 -0.5 31.1
12:20 1024 30.24 853 25.19 23.9 74.9 21 0.5 32.8
12:25 1024 30.24 853 25.19 24 75.1 22 1 33.8
12:30 1024 30.24 853 25.19 23.6 74.5 22 1 33.9
12:35 1023 30.21 853 25.19 23.7 74.6 20 -0.1 31.9
12:40 1023 30.21 853 25.19 23.4 74.2 22 0.6 33
12:45 1023 30.21 853 25.19 22.9 73.1 21 -0.4 31.2
12:50 1023 30.21 852 25.16 23.4 74.2 21 0.2 32.3
12:55 1023 30.21 852 25.16 24 75.2 21 0.4 32.7
13:00 1023 30.21 852 25.16 24.8 76.6 20 0.8 33.4
13:05 1023 30.21 852 25.16 25.1 77.1 19 0.4 32.6
13:10 1023 30.21 852 25.16 24.7 76.5 21 0.9 33.6
13:15 1023 30.21 852 25.16 24.3 75.8 19 -0.2 31.6
13:20 1023 30.21 852 25.16 25.1 77.2 18 -0.3 31.5
13:25 1023 30.21 852 25.16 25.1 77.1 19 0.1 32.2
13:30 1023 30.21 852 25.16 25.9 78.6 16 -1.6 29.1
13:35 1023 30.21 852 25.16 26.3 79.3 16 -1.5 29.3
13:40 1023 30.21 852 25.16 26.3 79.3 17 -0.1 31.8
13:45 1023 30.21 852 25.16 26.9 80.5 16 -0.9 30.4
13:50 1023 30.21 852 25.16 27.4 81.2 15 -1.4 29.5
13:55 1023 30.21 852 25.16 26.8 80.2 16 -0.6 31
14:00 1023 30.21 852 25.16 26.1 78.9 15 -1.9 28.5
14:05 1022 30.18 852 25.16 26.1 78.9 15 -2.3 27.8
14:10 1022 30.18 852 25.16 26.1 78.9 15 -2.6 27.3
14:15 1022 30.18 852 25.16 26.1 79.1 14 -2.9 26.7
14:20 1022 30.18 851 25.13 25.9 78.6 15 -2.8 27
14:25 1022 30.18 851 25.13 26.2 79.2 15 -2.6 27.4
14:30 1022 30.18 851 25.13 27.1 80.7 15 -1.9 28.5
14:35 1022 30.18 851 25.13 27.3 81.2 15 -1.4 29.4
14:40 1022 30.18 851 25.13 27.8 82.1 14 -2.1 28.2
14:45 1022 30.18 851 25.13 28 82.4 13 -2.3 27.8
14:50 1022 30.18 851 25.13 27.4 81.2 14 -2.4 27.7
14:55 1022 30.18 851 25.13 27.8 82 14 -2.1 28.2
15:00 1022 30.18 851 25.13 27.8 82.1 14 -2.3 27.9
15:05 1022 30.18 851 25.13 28 82.3 13 -2.7 27.1
15:10 1022 30.18 851 25.13 28 82.4 13 -2.9 26.7
15:15 1022 30.18 851 25.13 27.7 81.8 13 -2.9 26.8
15:20 1022 30.18 851 25.13 27.9 82.1 12 -4.2 24.5
15:25 1022 30.18 851 25.13 28 82.4 12 -3.3 26.1
15:30 1022 30.18 851 25.13 28.5 83.4 11 -4.2 24.4
15:35 1022 30.18 851 25.13 28.5 83.2 12 -3.3 26
15:40 1021 30.15 851 25.13 28.2 82.8 12 -3 26.5
15:45 1021 30.15 851 25.13 28.4 83.1 12 -3.3 26.1
15:50 1021 30.15 851 25.13 28.4 83.2 12 -3.9 25.1
15:55 1021 30.15 851 25.13 28.2 82.8 12 -3.5 25.7
16:00 1021 30.15 851 25.13 27.9 82.1 11 -4.7 23.5
16:05 1021 30.15 851 25.13 27.4 81.4 12 -3.8 25.2
16:10 1021 30.15 850 25.1 28 82.3 12 -3.6 25.6
16:15 1021 30.15 850 25.1 28.1 82.5 12 -4 24.8
16:20 1021 30.15 850 25.1 28.4 83.1 12 -3.3 26
16:25 1021 30.15 850 25.1 28.1 82.5 12 -3.3 26.1
16:30 1021 30.15 850 25.1 28.2 82.8 12 -4.1 24.7
16:35 1021 30.15 850 25.1 28.1 82.6 11 -4.7 23.5
16:40 1021 30.15 850 25.1 28 82.4 11 -5 23.1
16:45 1021 30.15 850 25.1 27.8 82 11 -4.7 23.5
16:50 1021 30.15 850 25.1 28.1 82.6 11 -4.6 23.8
16:55 1021 30.15 850 25.1 28.4 83 12 -4 24.8
17:00 1021 30.15 850 25.1 28.4 83.2 12 -3.1 26.4
17:05 1021 30.15 850 25.1 28.4 83 12 -3.5 25.6
17:10 1021 30.15 850 25.1 28.3 82.9 13 -2.9 26.8
17:15 1021 30.15 850 25.1 28.1 82.6 11 -4.6 23.8
17:20 1021 30.15 850 25.1 28.2 82.8 12 -3.4 25.9
17:25 1021 30.15 850 25.1 28.2 82.8 11 -4.9 23.1
17:30 1021 30.15 850 25.1 28.3 82.9 11 -4.5 23.9
17:35 1021 30.15 850 25.1 28.3 83 12 -3.8 25.1
17:40 1021 30.15 850 25.1 28.2 82.8 12 -3.8 25.1
17:45 1021 30.15 850 25.1 28.3 82.9 12 -4 24.7
17:50 1021 30.15 850 25.1 28.4 83.2 12 -3.5 25.7
17:55 1021 30.15 850 25.1 28.4 83.2 12 -3.1 26.4
18:00 1021 30.15 850 25.1 28.4 83.1 12 -3.2 26.2
18:05 1021 30.15 850 25.1 28.4 83 13 -2.3 27.9
18:10 1021 30.15 850 25.1 28.2 82.8 11 -4.4 24.1
18:15 1021 30.15 850 25.1 28.1 82.5 11 -4.4 24.1
18:20 1021 30.15 850 25.1 27.9 82.2 12 -3.7 25.4
18:25 1021 30.15 850 25.1 27.5 81.4 13 -2.8 27
18:30 1021 30.15 850 25.1 27.1 80.8 12 -4 24.9
18:35 1021 30.15 850 25.1 26.9 80.4 13 -4.1 24.6
18:40 1021 30.15 850 25.1 26.7 80.1 15 -2 28.4
18:45 1021 30.15 850 25.1 26.1 78.9 15 -2.4 27.6
18:50 1021 30.15 850 25.1 25.8 78.4 17 -1 30.2
18:55 1021 30.15 850 25.1 25.5 77.9 16 -1.9 28.5
19:00 1021 30.15 850 25.1 25.3 77.6 20 1 33.8
19:05 1021 30.15 850 25.1 24.5 76.1 23 2 35.6
19:10 1021 30.15 850 25.1 23.4 74.1 25 2.4 36.3
19:15 1021 30.15 850 25.1 22.7 72.8 26 2.6 36.7
19:20 1021 30.15 850 25.1 22.2 72 26 2 35.7
19:25 1021 30.15 850 25.1 22 71.5 25 1.5 34.6
19:30 1021 30.15 850 25.1 21.6 70.8 25 0.9 33.6
19:35 1021 30.15 850 25.1 21 69.9 27 1.5 34.6
19:40 1021 30.15 850 25.1 20.6 69 26 0.8 33.4
19:45 1021 30.15 850 25.1 20.2 68.4 29 1.8 35.2
19:50 1021 30.15 850 25.1 20 67.9 27 0.8 33.4
19:55 1021 30.15 850 25.1 19.6 67.4 28 0.7 33.3
20:00 1021 30.15 850 25.1 19.4 66.9 30 1.4 34.5
20:05 1021 30.15 850 25.1 18.8 65.9 33 2.2 36
20:10 1021 30.15 850 25.1 18.1 64.6 30 0.4 32.6
20:15 1021 30.15 850 25.1 18.2 64.7 27 -0.9 30.4
20:20 1021 30.15 850 25.1 18.7 65.7 24 -1.9 28.5
20:25 1021 30.15 850 25.1 19 66.2 26 -0.9 30.4
20:30 1021 30.15 851 25.13 18.6 65.4 26 -1.4 29.5
20:35 1021 30.15 851 25.13 18.4 65.1 25 -1.9 28.6
20:40 1021 30.15 851 25.13 18.5 65.2 25 -2 28.4
20:45 1021 30.15 851 25.13 18.4 65.1 24 -2.5 27.5
20:50 1021 30.15 851 25.13 18.5 65.4 23 -2.7 27.1
20:55 1022 30.18 851 25.13 18.5 65.4 25 -2 28.5
21:00 1022 30.18 851 25.13 18.5 65.4 24 -2.3 27.9
21:05 1022 30.18 851 25.13 18.6 65.4 23 -2.8 26.9
21:10 1022 30.18 851 25.13 18.7 65.6 23 -3 26.7
21:15 1022 30.18 851 25.13 18.6 65.5 24 -1.9 28.5
21:20 1022 30.18 851 25.13 18.2 64.7 24 -2.5 27.5
21:25 1022 30.18 851 25.13 17.9 64.2 26 -1.6 29.2
21:30 1022 30.18 851 25.13 17.9 64.2 25 -2.4 27.7
21:35 1022 30.18 851 25.13 17.7 63.8 27 -1.5 29.4
21:40 1022 30.18 851 25.13 17.6 63.7 26 -2.2 28
21:45 1022 30.18 851 25.13 17.4 63.4 24 -3 26.5
21:50 1022 30.18 851 25.13 17.9 64.2 24 -2.7 27.1
21:55 1022 30.18 851 25.13 17.9 64.3 24 -2.7 27.1
22:00 1022 30.18 851 25.13 18 64.3 25 -2.3 27.8
22:05 1022 30.18 851 25.13 18.1 64.6 24 -2.7 27.2
22:10 1022 30.18 851 25.13 17.9 64.2 24 -2.6 27.2
22:15 1022 30.18 851 25.13 17.5 63.4 27 -1.8 28.8
22:20 1022 30.18 851 25.13 17.1 62.8 29 -0.9 30.4
22:25 1022 30.18 851 25.13 16.7 62.1 30 -0.7 30.8
22:30 1022 30.18 851 25.13 16.2 61.1 35 0.9 33.5
22:35 1022 30.18 851 25.13 16.4 61.5 32 -0.1 31.8
22:40 1022 30.18 851 25.13 16.2 61.1 34 0.3 32.5
22:45 1022 30.18 851 25.13 16.2 61.1 30 -1.4 29.4
22:50 1022 30.18 851 25.13 16 60.7 30 -1.5 29.3
22:55 1022 30.18 851 25.13 16 60.8 31 -0.9 30.4
23:00 1022 30.18 851 25.13 15.7 60.3 33 -0.3 31.4
23:05 1022 30.18 851 25.13 15.6 60 33 -0.7 30.7
23:10 1022 30.18 851 25.13 15.4 59.7 33 -0.6 30.8
23:15 1022 30.18 851 25.13 15.2 59.4 33 -1 30.1
23:20 1022 30.18 852 25.16 15.2 59.4 33 -0.8 30.6
23:25 1022 30.18 852 25.16 15.3 59.5 37 0.9 33.7
23:30 1022 30.18 852 25.16 14.8 58.6 35 -0.4 31.2
23:35 1022 30.18 852 25.16 14.4 57.9 33 -1.5 29.2
23:40 1022 30.18 852 25.16 14.5 58.2 34 -1.2 29.8
23:45 1022 30.18 852 25.16 15 59 31 -1.8 28.8
23:50 1022 30.18 852 25.16 14.9 58.9 33 -1.1 30
23:55 1022 30.18 852 25.16 14.6 58.3 32 -1.8 28.7
24:00 1023 30.21 852 25.16 14.6 58.2 32 -1.8 28.7